sensor_id;sensor_type;location;lat;lon;timestamp;temperature;humidity
38398;DHT22;24179;52.094;4.408;2022-10-04T00:00:43;11.90;99.90
38398;DHT22;24179;52.094;4.408;2022-10-04T00:04:06;11.90;99.90
38398;DHT22;24179;52.094;4.408;2022-10-04T00:10:12;11.90;99.90
38398;DHT22;24179;52.094;4.408;2022-10-04T00:13:21;11.90;99.90
38398;DHT22;24179;52.094;4.408;2022-10-04T00:16:25;11.80;99.90
38398;DHT22;24179;52.094;4.408;2022-10-04T00:22:37;11.90;99.90
38398;DHT22;24179;52.094;4.408;2022-10-04T00:25:59;11.90;99.90
38398;DHT22;24179;52.094;4.408;2022-10-04T00:29:22;11.80;99.90
38398;DHT22;24179;52.094;4.408;2022-10-04T00:32:24;11.70;99.90
38398;DHT22;24179;52.094;4.408;2022-10-04T00:38:26;11.60;99.90
38398;DHT22;24179;52.094;4.408;2022-10-04T00:41:27;11.50;99.90
38398;DHT22;24179;52.094;4.408;2022-10-04T00:50:41;11.30;99.90
38398;DHT22;24179;52.094;4.408;2022-10-04T00:53:47;11.30;99.90
38398;DHT22;24179;52.094;4.408;2022-10-04T00:56:54;11.30;99.90
38398;DHT22;24179;52.094;4.408;2022-10-04T00:59:57;11.30;99.90
38398;DHT22;24179;52.094;4.408;2022-10-04T01:06:03;11.40;99.90
38398;DHT22;24179;52.094;4.408;2022-10-04T01:09:05;11.40;99.90
38398;DHT22;24179;52.094;4.408;2022-10-04T01:12:10;11.30;99.90
38398;DHT22;24179;52.094;4.408;2022-10-04T01:21:24;11.20;99.90
38398;DHT22;24179;52.094;4.408;2022-10-04T01:24:29;11.20;99.90
38398;DHT22;24179;52.094;4.408;2022-10-04T01:27:34;11.20;99.90
38398;DHT22;24179;52.094;4.408;2022-10-04T01:30:35;11.10;99.90
38398;DHT22;24179;52.094;4.408;2022-10-04T01:33:35;11.10;99.90
38398;DHT22;24179;52.094;4.408;2022-10-04T01:36:36;11.00;99.90
38398;DHT22;24179;52.094;4.408;2022-10-04T01:39:36;11.00;99.90
38398;DHT22;24179;52.094;4.408;2022-10-04T01:45:50;11.00;99.90
38398;DHT22;24179;52.094;4.408;2022-10-04T01:48:53;11.00;99.90
38398;DHT22;24179;52.094;4.408;2022-10-04T01:51:56;11.00;99.90
38398;DHT22;24179;52.094;4.408;2022-10-04T01:54:59;11.00;99.90
38398;DHT22;24179;52.094;4.408;2022-10-04T01:58:06;11.00;99.90
38398;DHT22;24179;52.094;4.408;2022-10-04T02:01:10;11.00;99.90
38398;DHT22;24179;52.094;4.408;2022-10-04T02:04:18;11.00;99.90
38398;DHT22;24179;52.094;4.408;2022-10-04T02:07:19;11.00;99.90
38398;DHT22;24179;52.094;4.408;2022-10-04T02:10:20;10.90;99.90
38398;DHT22;24179;52.094;4.408;2022-10-04T02:13:23;10.90;99.90
38398;DHT22;24179;52.094;4.408;2022-10-04T02:16:26;10.90;99.90
38398;DHT22;24179;52.094;4.408;2022-10-04T02:19:37;10.90;99.90
38398;DHT22;24179;52.094;4.408;2022-10-04T02:22:39;10.80;99.90
38398;DHT22;24179;52.094;4.408;2022-10-04T02:25:39;10.80;99.90
38398;DHT22;24179;52.094;4.408;2022-10-04T02:28:40;10.80;99.90
38398;DHT22;24179;52.094;4.408;2022-10-04T02:31:40;10.80;99.90
38398;DHT22;24179;52.094;4.408;2022-10-04T02:35:16;10.80;99.90
38398;DHT22;24179;52.094;4.408;2022-10-04T02:38:22;10.70;99.90
38398;DHT22;24179;52.094;4.408;2022-10-04T02:47:27;10.60;99.90
38398;DHT22;24179;52.094;4.408;2022-10-04T02:50:31;10.60;99.90
38398;DHT22;24179;52.094;4.408;2022-10-04T02:53:49;10.60;99.90
38398;DHT22;24179;52.094;4.408;2022-10-04T02:56:50;10.60;99.90
38398;DHT22;24179;52.094;4.408;2022-10-04T02:59:59;10.50;99.90
38398;DHT22;24179;52.094;4.408;2022-10-04T03:06:20;10.50;99.90
38398;DHT22;24179;52.094;4.408;2022-10-04T03:09:22;10.60;99.90
38398;DHT22;24179;52.094;4.408;2022-10-04T03:12:23;10.60;99.90
38398;DHT22;24179;52.094;4.408;2022-10-04T03:15:24;10.60;99.90
38398;DHT22;24179;52.094;4.408;2022-10-04T03:18:24;10.70;99.90
38398;DHT22;24179;52.094;4.408;2022-10-04T03:21:25;10.70;99.90
38398;DHT22;24179;52.094;4.408;2022-10-04T03:24:29;10.70;99.90
38398;DHT22;24179;52.094;4.408;2022-10-04T03:27:31;10.70;99.90
38398;DHT22;24179;52.094;4.408;2022-10-04T03:30:33;10.70;99.90
38398;DHT22;24179;52.094;4.408;2022-10-04T03:33:36;10.80;99.90
38398;DHT22;24179;52.094;4.408;2022-10-04T03:36:36;10.80;99.90
38398;DHT22;24179;52.094;4.408;2022-10-04T03:39:40;10.80;99.90
38398;DHT22;24179;52.094;4.408;2022-10-04T03:42:41;10.80;99.90
38398;DHT22;24179;52.094;4.408;2022-10-04T03:45:44;10.80;99.90
38398;DHT22;24179;52.094;4.408;2022-10-04T03:48:45;10.80;99.90
38398;DHT22;24179;52.094;4.408;2022-10-04T03:51:48;10.70;99.90
38398;DHT22;24179;52.094;4.408;2022-10-04T03:54:50;10.70;99.90
38398;DHT22;24179;52.094;4.408;2022-10-04T03:57:52;10.70;99.90
38398;DHT22;24179;52.094;4.408;2022-10-04T04:00:59;10.60;99.90
38398;DHT22;24179;52.094;4.408;2022-10-04T04:07:14;10.60;99.90
38398;DHT22;24179;52.094;4.408;2022-10-04T04:16:38;10.60;99.90
38398;DHT22;24179;52.094;4.408;2022-10-04T04:19:39;10.60;99.90
38398;DHT22;24179;52.094;4.408;2022-10-04T04:22:42;10.60;99.90
38398;DHT22;24179;52.094;4.408;2022-10-04T04:25:46;10.50;99.90
38398;DHT22;24179;52.094;4.408;2022-10-04T04:28:49;10.50;99.90
38398;DHT22;24179;52.094;4.408;2022-10-04T04:31:51;10.50;99.90
38398;DHT22;24179;52.094;4.408;2022-10-04T04:34:53;10.50;99.90
38398;DHT22;24179;52.094;4.408;2022-10-04T04:41:06;10.50;99.90
38398;DHT22;24179;52.094;4.408;2022-10-04T04:44:13;10.50;99.90
38398;DHT22;24179;52.094;4.408;2022-10-04T04:47:20;10.50;99.90
38398;DHT22;24179;52.094;4.408;2022-10-04T04:50:30;10.50;99.90
38398;DHT22;24179;52.094;4.408;2022-10-04T04:53:31;10.60;99.90
38398;DHT22;24179;52.094;4.408;2022-10-04T04:56:32;10.60;99.90
38398;DHT22;24179;52.094;4.408;2022-10-04T04:59:33;10.60;99.90
38398;DHT22;24179;52.094;4.408;2022-10-04T05:02:36;10.60;99.90
38398;DHT22;24179;52.094;4.408;2022-10-04T05:05:36;10.60;99.90
38398;DHT22;24179;52.094;4.408;2022-10-04T05:08:37;10.60;99.90
38398;DHT22;24179;52.094;4.408;2022-10-04T05:11:38;10.60;99.90
38398;DHT22;24179;52.094;4.408;2022-10-04T05:14:39;10.60;99.90
38398;DHT22;24179;52.094;4.408;2022-10-04T05:17:40;10.60;99.90
38398;DHT22;24179;52.094;4.408;2022-10-04T05:20:42;10.60;99.90
38398;DHT22;24179;52.094;4.408;2022-10-04T05:23:44;10.60;99.90
38398;DHT22;24179;52.094;4.408;2022-10-04T05:26:49;10.60;99.90
38398;DHT22;24179;52.094;4.408;2022-10-04T05:30:07;10.60;99.90
38398;DHT22;24179;52.094;4.408;2022-10-04T05:33:10;10.60;99.90
38398;DHT22;24179;52.094;4.408;2022-10-04T05:36:20;10.60;99.90
38398;DHT22;24179;52.094;4.408;2022-10-04T05:42:36;10.40;99.90
38398;DHT22;24179;52.094;4.408;2022-10-04T05:45:38;10.40;99.90
38398;DHT22;24179;52.094;4.408;2022-10-04T05:48:39;10.40;99.90
38398;DHT22;24179;52.094;4.408;2022-10-04T05:51:52;10.40;99.90
38398;DHT22;24179;52.094;4.408;2022-10-04T06:01:40;10.40;99.90
38398;DHT22;24179;52.094;4.408;2022-10-04T06:07:48;10.40;99.90
38398;DHT22;24179;52.094;4.408;2022-10-04T06:23:25;10.40;99.90
38398;DHT22;24179;52.094;4.408;2022-10-04T06:26:29;10.30;99.90
38398;DHT22;24179;52.094;4.408;2022-10-04T06:29:34;10.30;99.90
38398;DHT22;24179;52.094;4.408;2022-10-04T06:35:56;10.30;99.90
38398;DHT22;24179;52.094;4.408;2022-10-04T06:48:24;10.60;99.90
38398;DHT22;24179;52.094;4.408;2022-10-04T07:04:02;11.10;99.90
38398;DHT22;24179;52.094;4.408;2022-10-04T07:07:06;11.20;99.90
38398;DHT22;24179;52.094;4.408;2022-10-04T07:10:38;11.40;99.90
38398;DHT22;24179;52.094;4.408;2022-10-04T07:13:41;11.60;99.90
38398;DHT22;24179;52.094;4.408;2022-10-04T07:16:48;11.80;99.90
38398;DHT22;24179;52.094;4.408;2022-10-04T07:19:51;12.10;99.90
38398;DHT22;24179;52.094;4.408;2022-10-04T07:22:54;12.40;99.90
38398;DHT22;24179;52.094;4.408;2022-10-04T07:25:57;12.80;99.90
38398;DHT22;24179;52.094;4.408;2022-10-04T07:29:00;13.00;99.90
38398;DHT22;24179;52.094;4.408;2022-10-04T07:32:26;12.90;99.90
38398;DHT22;24179;52.094;4.408;2022-10-04T07:35:29;12.90;99.90
38398;DHT22;24179;52.094;4.408;2022-10-04T07:38:36;13.30;99.90
38398;DHT22;24179;52.094;4.408;2022-10-04T07:45:07;14.10;99.90
38398;DHT22;24179;52.094;4.408;2022-10-04T07:48:19;14.00;99.90
38398;DHT22;24179;52.094;4.408;2022-10-04T07:51:24;14.00;99.90
38398;DHT22;24179;52.094;4.408;2022-10-04T07:54:34;13.70;99.90
38398;DHT22;24179;52.094;4.408;2022-10-04T08:00:51;14.20;99.90
38398;DHT22;24179;52.094;4.408;2022-10-04T08:03:58;14.40;99.90
38398;DHT22;24179;52.094;4.408;2022-10-04T08:07:01;14.70;99.90
38398;DHT22;24179;52.094;4.408;2022-10-04T08:13:20;14.70;99.90
38398;DHT22;24179;52.094;4.408;2022-10-04T08:16:36;15.60;99.90
38398;DHT22;24179;52.094;4.408;2022-10-04T08:19:46;16.20;99.90
38398;DHT22;24179;52.094;4.408;2022-10-04T08:23:00;16.50;99.90
38398;DHT22;24179;52.094;4.408;2022-10-04T08:35:44;14.70;99.90
38398;DHT22;24179;52.094;4.408;2022-10-04T08:38:56;14.50;99.90
38398;DHT22;24179;52.094;4.408;2022-10-04T08:42:15;14.70;99.90
38398;DHT22;24179;52.094;4.408;2022-10-04T09:21:11;19.30;99.90
38398;DHT22;24179;52.094;4.408;2022-10-04T09:24:46;19.60;99.90
38398;DHT22;24179;52.094;4.408;2022-10-04T09:47:02;17.30;99.90
38398;DHT22;24179;52.094;4.408;2022-10-04T09:56:26;20.00;99.90
38398;DHT22;24179;52.094;4.408;2022-10-04T09:59:37;19.20;99.90
38398;DHT22;24179;52.094;4.408;2022-10-04T10:22:08;19.00;99.90
38398;DHT22;24179;52.094;4.408;2022-10-04T10:28:26;19.10;99.90
38398;DHT22;24179;52.094;4.408;2022-10-04T10:47:58;21.70;99.90
38398;DHT22;24179;52.094;4.408;2022-10-04T10:58:13;22.50;99.90
38398;DHT22;24179;52.094;4.408;2022-10-04T11:23:53;19.80;99.90
38398;DHT22;24179;52.094;4.408;2022-10-04T11:30:17;19.20;99.90
38398;DHT22;24179;52.094;4.408;2022-10-04T11:40:06;19.00;99.90
38398;DHT22;24179;52.094;4.408;2022-10-04T11:46:37;18.70;99.90
38398;DHT22;24179;52.094;4.408;2022-10-04T11:49:53;19.50;99.90
38398;DHT22;24179;52.094;4.408;2022-10-04T12:08:59;20.60;99.90
38398;DHT22;24179;52.094;4.408;2022-10-04T12:28:46;21.20;99.90
38398;DHT22;24179;52.094;4.408;2022-10-04T12:31:40;21.00;99.90
38398;DHT22;24179;52.094;4.408;2022-10-04T12:44:44;21.40;99.90
38398;DHT22;24179;52.094;4.408;2022-10-04T13:03:12;21.70;99.90
38398;DHT22;24179;52.094;4.408;2022-10-04T13:09:16;21.50;99.90
38398;DHT22;24179;52.094;4.408;2022-10-04T13:15:24;21.20;99.90
38398;DHT22;24179;52.094;4.408;2022-10-04T13:38:04;21.40;99.90
38398;DHT22;24179;52.094;4.408;2022-10-04T13:47:35;21.80;99.90
38398;DHT22;24179;52.094;4.408;2022-10-04T13:53:59;22.00;99.90
38398;DHT22;24179;52.094;4.408;2022-10-04T14:13:31;20.80;99.90
38398;DHT22;24179;52.094;4.408;2022-10-04T14:23:01;20.10;99.90
38398;DHT22;24179;52.094;4.408;2022-10-04T14:26:26;19.80;99.90
38398;DHT22;24179;52.094;4.408;2022-10-04T14:42:22;19.70;99.90
38398;DHT22;24179;52.094;4.408;2022-10-04T14:58:40;18.90;99.90
38398;DHT22;24179;52.094;4.408;2022-10-04T15:01:44;18.90;99.90
38398;DHT22;24179;52.094;4.408;2022-10-04T15:08:31;18.80;99.90
38398;DHT22;24179;52.094;4.408;2022-10-04T15:21:41;18.30;99.90
38398;DHT22;24179;52.094;4.408;2022-10-04T15:24:47;18.20;99.90
38398;DHT22;24179;52.094;4.408;2022-10-04T15:27:48;18.20;99.90
38398;DHT22;24179;52.094;4.408;2022-10-04T15:37:02;18.20;99.90
38398;DHT22;24179;52.094;4.408;2022-10-04T15:46:24;18.20;99.90
38398;DHT22;24179;52.094;4.408;2022-10-04T15:49:34;18.30;99.90
38398;DHT22;24179;52.094;4.408;2022-10-04T16:02:52;18.30;99.90
38398;DHT22;24179;52.094;4.408;2022-10-04T16:09:13;18.30;99.90
38398;DHT22;24179;52.094;4.408;2022-10-04T16:15:29;18.20;99.90
38398;DHT22;24179;52.094;4.408;2022-10-04T16:21:49;18.10;99.90
38398;DHT22;24179;52.094;4.408;2022-10-04T16:24:56;18.00;99.90
38398;DHT22;24179;52.094;4.408;2022-10-04T16:28:05;18.00;99.90
38398;DHT22;24179;52.094;4.408;2022-10-04T16:37:37;17.90;99.90
38398;DHT22;24179;52.094;4.408;2022-10-04T16:43:52;17.90;99.90
38398;DHT22;24179;52.094;4.408;2022-10-04T16:46:53;17.90;99.90
38398;DHT22;24179;52.094;4.408;2022-10-04T16:49:55;17.90;99.90
38398;DHT22;24179;52.094;4.408;2022-10-04T16:55:58;17.80;99.90
38398;DHT22;24179;52.094;4.408;2022-10-04T16:59:11;17.80;99.90
38398;DHT22;24179;52.094;4.408;2022-10-04T17:05:31;17.80;99.90
38398;DHT22;24179;52.094;4.408;2022-10-04T17:09:22;17.70;99.90
38398;DHT22;24179;52.094;4.408;2022-10-04T17:18:34;17.70;99.90
38398;DHT22;24179;52.094;4.408;2022-10-04T17:27:52;17.70;99.90
38398;DHT22;24179;52.094;4.408;2022-10-04T17:37:10;17.70;99.90
38398;DHT22;24179;52.094;4.408;2022-10-04T17:43:15;17.70;99.90
38398;DHT22;24179;52.094;4.408;2022-10-04T17:46:28;17.60;99.90
38398;DHT22;24179;52.094;4.408;2022-10-04T17:49:33;17.60;99.90
38398;DHT22;24179;52.094;4.408;2022-10-04T17:52:55;17.50;99.90
38398;DHT22;24179;52.094;4.408;2022-10-04T17:56:23;17.50;99.90
38398;DHT22;24179;52.094;4.408;2022-10-04T17:59:26;17.50;99.90
38398;DHT22;24179;52.094;4.408;2022-10-04T18:08:43;17.40;99.90
38398;DHT22;24179;52.094;4.408;2022-10-04T18:11:48;17.50;99.90
38398;DHT22;24179;52.094;4.408;2022-10-04T18:21:23;17.50;99.90
38398;DHT22;24179;52.094;4.408;2022-10-04T18:24:29;17.60;99.90
38398;DHT22;24179;52.094;4.408;2022-10-04T18:27:30;17.60;99.90
38398;DHT22;24179;52.094;4.408;2022-10-04T18:30:49;17.50;99.90
38398;DHT22;24179;52.094;4.408;2022-10-04T18:33:51;17.50;99.90
38398;DHT22;24179;52.094;4.408;2022-10-04T18:37:38;17.50;99.90
38398;DHT22;24179;52.094;4.408;2022-10-04T18:40:16;17.50;99.90
38398;DHT22;24179;52.094;4.408;2022-10-04T18:46:39;17.50;99.90
38398;DHT22;24179;52.094;4.408;2022-10-04T18:49:46;17.50;99.90
38398;DHT22;24179;52.094;4.408;2022-10-04T18:56:07;17.50;99.90
38398;DHT22;24179;52.094;4.408;2022-10-04T18:59:21;17.50;99.90
38398;DHT22;24179;52.094;4.408;2022-10-04T19:12:11;17.30;99.90
38398;DHT22;24179;52.094;4.408;2022-10-04T19:24:46;17.30;99.90
38398;DHT22;24179;52.094;4.408;2022-10-04T19:27:53;17.20;99.90
38398;DHT22;24179;52.094;4.408;2022-10-04T19:34:10;17.20;99.90
38398;DHT22;24179;52.094;4.408;2022-10-04T19:37:16;17.10;99.90
38398;DHT22;24179;52.094;4.408;2022-10-04T19:43:53;17.20;99.90
38398;DHT22;24179;52.094;4.408;2022-10-04T19:46:58;17.10;99.90
38398;DHT22;24179;52.094;4.408;2022-10-04T19:53:06;17.10;99.90
38398;DHT22;24179;52.094;4.408;2022-10-04T19:56:10;17.10;99.90
38398;DHT22;24179;52.094;4.408;2022-10-04T19:59:15;17.10;99.90
38398;DHT22;24179;52.094;4.408;2022-10-04T20:02:17;17.10;99.90
38398;DHT22;24179;52.094;4.408;2022-10-04T20:05:19;17.00;99.90
38398;DHT22;24179;52.094;4.408;2022-10-04T20:14:45;17.10;99.90
38398;DHT22;24179;52.094;4.408;2022-10-04T20:17:48;17.10;99.90
38398;DHT22;24179;52.094;4.408;2022-10-04T20:23:58;17.10;99.90
38398;DHT22;24179;52.094;4.408;2022-10-04T20:27:01;17.10;99.90
38398;DHT22;24179;52.094;4.408;2022-10-04T20:30:12;17.00;99.90
38398;DHT22;24179;52.094;4.408;2022-10-04T20:42:42;16.90;99.90
38398;DHT22;24179;52.094;4.408;2022-10-04T20:48:43;16.90;99.90
38398;DHT22;24179;52.094;4.408;2022-10-04T20:51:47;16.90;99.90
38398;DHT22;24179;52.094;4.408;2022-10-04T20:54:49;16.90;99.90
38398;DHT22;24179;52.094;4.408;2022-10-04T20:57:52;16.90;99.90
38398;DHT22;24179;52.094;4.408;2022-10-04T21:00:54;16.90;99.90
38398;DHT22;24179;52.094;4.408;2022-10-04T21:04:10;16.90;99.90
38398;DHT22;24179;52.094;4.408;2022-10-04T21:07:32;16.90;99.90
38398;DHT22;24179;52.094;4.408;2022-10-04T21:10:31;16.90;99.90
38398;DHT22;24179;52.094;4.408;2022-10-04T21:13:42;16.90;99.90
38398;DHT22;24179;52.094;4.408;2022-10-04T21:16:47;16.80;99.90
38398;DHT22;24179;52.094;4.408;2022-10-04T21:19:47;16.90;99.90
38398;DHT22;24179;52.094;4.408;2022-10-04T21:22:48;16.90;99.90
38398;DHT22;24179;52.094;4.408;2022-10-04T21:25:49;16.90;99.90
38398;DHT22;24179;52.094;4.408;2022-10-04T21:28:53;16.80;99.90
38398;DHT22;24179;52.094;4.408;2022-10-04T21:31:59;16.80;99.90
38398;DHT22;24179;52.094;4.408;2022-10-04T21:35:00;16.90;99.90
38398;DHT22;24179;52.094;4.408;2022-10-04T21:38:00;16.90;99.90
38398;DHT22;24179;52.094;4.408;2022-10-04T21:41:01;16.90;99.90
38398;DHT22;24179;52.094;4.408;2022-10-04T21:44:01;16.90;99.90
38398;DHT22;24179;52.094;4.408;2022-10-04T21:47:02;16.80;99.90
38398;DHT22;24179;52.094;4.408;2022-10-04T21:50:02;16.90;99.90
38398;DHT22;24179;52.094;4.408;2022-10-04T21:53:04;16.80;99.90
38398;DHT22;24179;52.094;4.408;2022-10-04T21:56:05;16.80;99.90
38398;DHT22;24179;52.094;4.408;2022-10-04T21:59:06;16.80;99.90
38398;DHT22;24179;52.094;4.408;2022-10-04T22:02:07;16.80;99.90
38398;DHT22;24179;52.094;4.408;2022-10-04T22:05:07;16.80;99.90
38398;DHT22;24179;52.094;4.408;2022-10-04T22:08:08;16.70;99.90
38398;DHT22;24179;52.094;4.408;2022-10-04T22:11:09;16.70;99.90
38398;DHT22;24179;52.094;4.408;2022-10-04T22:14:09;16.70;99.90
38398;DHT22;24179;52.094;4.408;2022-10-04T22:17:10;16.70;99.90
38398;DHT22;24179;52.094;4.408;2022-10-04T22:20:10;16.60;99.90
38398;DHT22;24179;52.094;4.408;2022-10-04T22:23:22;16.60;99.90
38398;DHT22;24179;52.094;4.408;2022-10-04T22:26:24;16.60;99.90
38398;DHT22;24179;52.094;4.408;2022-10-04T22:29:25;16.60;99.90
38398;DHT22;24179;52.094;4.408;2022-10-04T22:32:26;16.60;99.90
38398;DHT22;24179;52.094;4.408;2022-10-04T22:35:28;16.60;99.90
38398;DHT22;24179;52.094;4.408;2022-10-04T22:38:29;16.50;99.90
38398;DHT22;24179;52.094;4.408;2022-10-04T22:41:33;16.50;99.90
38398;DHT22;24179;52.094;4.408;2022-10-04T22:44:34;16.50;99.90
38398;DHT22;24179;52.094;4.408;2022-10-04T22:47:37;16.40;99.90
38398;DHT22;24179;52.094;4.408;2022-10-04T22:50:37;16.40;99.90
38398;DHT22;24179;52.094;4.408;2022-10-04T22:53:42;16.40;99.90
38398;DHT22;24179;52.094;4.408;2022-10-04T22:56:43;16.40;99.90
38398;DHT22;24179;52.094;4.408;2022-10-04T22:59:47;16.40;99.90
38398;DHT22;24179;52.094;4.408;2022-10-04T23:02:48;16.40;99.90
38398;DHT22;24179;52.094;4.408;2022-10-04T23:05:49;16.40;99.90
38398;DHT22;24179;52.094;4.408;2022-10-04T23:08:49;16.40;99.90
38398;DHT22;24179;52.094;4.408;2022-10-04T23:11:50;16.40;99.90
38398;DHT22;24179;52.094;4.408;2022-10-04T23:14:50;16.40;99.90
38398;DHT22;24179;52.094;4.408;2022-10-04T23:17:52;16.40;99.90
38398;DHT22;24179;52.094;4.408;2022-10-04T23:20:55;16.50;99.90
38398;DHT22;24179;52.094;4.408;2022-10-04T23:23:57;16.40;99.90
38398;DHT22;24179;52.094;4.408;2022-10-04T23:26:59;16.40;99.90
38398;DHT22;24179;52.094;4.408;2022-10-04T23:30:03;16.40;99.90
38398;DHT22;24179;52.094;4.408;2022-10-04T23:33:14;16.40;99.90
38398;DHT22;24179;52.094;4.408;2022-10-04T23:36:15;16.40;99.90
38398;DHT22;24179;52.094;4.408;2022-10-04T23:39:21;16.40;99.90
38398;DHT22;24179;52.094;4.408;2022-10-04T23:42:25;16.40;99.90
38398;DHT22;24179;52.094;4.408;2022-10-04T23:45:28;16.40;99.90
38398;DHT22;24179;52.094;4.408;2022-10-04T23:48:29;16.40;99.90
38398;DHT22;24179;52.094;4.408;2022-10-04T23:51:31;16.40;99.90
38398;DHT22;24179;52.094;4.408;2022-10-04T23:54:31;16.40;99.90
38398;DHT22;24179;52.094;4.408;2022-10-04T23:57:32;16.40;99.90
